createdAt,value
2023-02-20T00:01:28.164Z,7.95
2023-02-20T00:03:55.441Z,8.50
2023-02-20T00:06:22.724Z,8.02
2023-02-20T00:08:49.910Z,7.68
2023-02-20T00:11:17.162Z,8.70
2023-02-20T00:13:47.701Z,7.50
2023-02-20T00:16:14.994Z,7.43
2023-02-20T00:18:42.246Z,7.45
2023-02-20T00:21:09.411Z,8.35
2023-02-20T00:23:36.672Z,8.23
2023-02-20T00:26:03.834Z,7.05
2023-02-20T00:28:31.027Z,7.30
2023-02-20T00:30:58.210Z,8.38
2023-02-20T00:33:25.597Z,8.75
2023-02-20T00:35:52.737Z,8.25
2023-02-20T00:38:19.904Z,8.45
2023-02-20T00:40:47.066Z,8.73
2023-02-20T00:43:14.321Z,8.05
2023-02-20T00:45:41.537Z,8.95
2023-02-20T00:48:09.016Z,8.13
2023-02-20T00:50:36.212Z,7.75
2023-02-20T00:53:03.554Z,7.80
2023-02-20T00:55:30.720Z,7.35
2023-02-20T00:57:58.006Z,7.47
2023-02-20T01:00:27.053Z,7.60
2023-02-20T01:02:54.277Z,7.45
2023-02-20T01:05:21.654Z,7.10
2023-02-20T01:07:48.919Z,8.40
2023-02-20T01:10:16.150Z,8.13
2023-02-20T01:12:43.346Z,6.97
2023-02-20T01:15:12.705Z,7.55
2023-02-20T01:17:40.438Z,7.85
2023-02-20T01:20:08.827Z,7.72
2023-02-20T01:22:36.009Z,8.18
2023-02-20T01:25:03.432Z,7.72
2023-02-20T01:27:30.850Z,7.93
2023-02-20T01:29:58.158Z,6.75
2023-02-20T01:32:25.393Z,6.90
2023-02-20T01:34:52.688Z,5.93
2023-02-20T01:37:19.918Z,8.10
2023-02-20T01:39:48.369Z,6.82
2023-02-20T01:42:18.976Z,6.97
2023-02-20T01:44:46.156Z,7.45
2023-02-20T01:47:16.286Z,6.68
2023-02-20T01:49:55.957Z,7.00
2023-02-20T01:52:30.860Z,6.07
2023-02-20T01:55:03.505Z,6.05
2023-02-20T01:57:32.727Z,5.67
2023-02-20T02:00:03.929Z,5.32
2023-02-20T02:02:33.726Z,5.80
2023-02-20T02:05:01.084Z,5.82
2023-02-20T02:07:30.251Z,7.40
2023-02-20T02:10:00.736Z,7.18
2023-02-20T02:12:27.954Z,8.15
2023-02-20T02:14:55.158Z,6.80
2023-02-20T02:17:39.841Z,6.88
2023-02-20T02:20:31.295Z,8.32
2023-02-20T02:23:17.224Z,7.47
2023-02-20T02:25:53.148Z,8.55
2023-02-20T02:28:33.278Z,9.48
2023-02-20T02:31:03.405Z,8.82
2023-02-20T02:33:49.261Z,8.88
2023-02-20T02:36:19.511Z,8.98
2023-02-20T02:38:51.829Z,8.88
2023-02-20T02:41:25.803Z,7.20
2023-02-20T02:44:16.626Z,9.00
2023-02-20T02:46:48.444Z,8.52
2023-02-20T02:49:21.664Z,8.05
2023-02-20T02:51:49.944Z,7.85
2023-02-20T02:54:22.388Z,7.88
2023-02-20T02:56:50.014Z,7.22
2023-02-20T02:59:29.650Z,7.82
2023-02-20T03:02:00.566Z,7.25
2023-02-20T03:04:29.313Z,7.30
2023-02-20T03:07:06.034Z,7.43
2023-02-20T03:09:35.529Z,6.68
2023-02-20T03:12:03.700Z,6.18
2023-02-20T03:14:56.118Z,6.20
2023-02-20T03:17:33.920Z,6.70
2023-02-20T03:20:03.447Z,6.03
2023-02-20T03:22:35.785Z,5.78
2023-02-20T03:25:09.231Z,5.88
2023-02-20T03:27:42.877Z,5.00
2023-02-20T03:30:16.827Z,5.28
2023-02-20T03:33:04.403Z,4.93
2023-02-20T03:35:52.443Z,4.70
2023-02-20T03:38:39.826Z,4.85
2023-02-20T03:41:27.381Z,4.35
2023-02-20T03:43:54.994Z,4.68
2023-02-20T03:46:23.083Z,4.13
2023-02-20T03:48:56.001Z,4.43
2023-02-20T03:51:42.710Z,4.28
2023-02-20T03:54:11.240Z,5.22
2023-02-20T03:56:43.529Z,5.40
2023-02-20T03:59:19.136Z,4.95
2023-02-20T04:01:49.114Z,4.55
2023-02-20T04:04:19.826Z,4.63
2023-02-20T04:06:49.664Z,5.90
2023-02-20T04:09:22.076Z,6.78
2023-02-20T04:11:52.878Z,5.88
2023-02-20T04:14:21.414Z,5.30
2023-02-20T04:16:51.237Z,5.72
2023-02-20T04:19:18.581Z,5.88
2023-02-20T04:21:48.869Z,5.35
2023-02-20T04:24:21.737Z,5.80
2023-02-20T04:26:50.320Z,5.60
2023-02-20T04:29:17.692Z,5.57
2023-02-20T04:31:45.041Z,5.03
2023-02-20T04:34:12.205Z,4.97
2023-02-20T04:36:39.733Z,4.85
2023-02-20T04:39:06.850Z,4.88
2023-02-20T04:41:34.065Z,5.45
2023-02-20T04:44:20.059Z,4.80
2023-02-20T04:46:47.340Z,5.72
2023-02-20T04:49:14.497Z,5.93
2023-02-20T04:51:41.646Z,5.85
2023-02-20T04:54:08.780Z,5.72
2023-02-20T04:56:36.036Z,5.40
2023-02-20T04:59:03.232Z,5.32
2023-02-20T05:01:30.481Z,5.22
2023-02-20T05:03:57.736Z,6.15
2023-02-20T05:06:24.911Z,5.55
2023-02-20T05:08:52.040Z,4.82
2023-02-20T05:11:19.251Z,4.88
2023-02-20T05:13:46.541Z,5.47
2023-02-20T05:16:14.568Z,5.82
2023-02-20T05:18:42.067Z,5.30
2023-02-20T05:21:32.978Z,5.13
2023-02-20T05:24:00.129Z,5.75
2023-02-20T05:26:27.352Z,5.35
2023-02-20T05:28:54.589Z,6.00
2023-02-20T05:31:21.864Z,6.32
2023-02-20T05:33:49.352Z,7.68
2023-02-20T05:36:17.428Z,7.28
2023-02-20T05:38:48.062Z,7.43
2023-02-20T05:41:20.108Z,6.53
2023-02-20T05:43:48.346Z,7.05
2023-02-20T05:46:16.370Z,7.30
2023-02-20T05:48:43.792Z,6.28
2023-02-20T05:51:19.893Z,7.05
2023-02-20T05:53:47.050Z,6.93
2023-02-20T05:56:14.567Z,7.18
2023-02-20T05:58:45.857Z,8.15
2023-02-20T06:01:22.793Z,7.10
2023-02-20T06:03:50.237Z,7.40
2023-02-20T06:06:18.058Z,7.05
2023-02-20T06:08:45.393Z,7.07
2023-02-20T06:11:13.369Z,6.95
2023-02-20T06:13:41.755Z,7.00
2023-02-20T06:16:09.606Z,6.82
2023-02-20T06:18:40.766Z,7.50
2023-02-20T06:21:12.097Z,6.32
2023-02-20T06:23:40.048Z,7.38
2023-02-20T06:26:07.825Z,6.88
2023-02-20T06:28:35.195Z,5.95
2023-02-20T06:31:02.789Z,6.35
2023-02-20T06:33:30.550Z,5.68
2023-02-20T06:35:57.951Z,5.93
2023-02-20T06:38:25.732Z,6.00
2023-02-20T06:40:52.999Z,5.65
2023-02-20T06:43:20.583Z,5.55
2023-02-20T06:45:48.348Z,5.85
2023-02-20T06:48:15.707Z,5.70
2023-02-20T06:50:43.018Z,5.63
2023-02-20T06:53:10.468Z,5.38
2023-02-20T06:55:37.651Z,5.30
2023-02-20T06:58:04.892Z,5.25
2023-02-20T07:00:32.815Z,4.90
2023-02-20T07:03:00.742Z,5.22
2023-02-20T07:05:30.364Z,5.63
2023-02-20T07:07:57.988Z,5.15
2023-02-20T07:10:25.456Z,5.85
2023-02-20T07:12:52.631Z,5.15
2023-02-20T07:15:20.091Z,5.38
2023-02-20T07:17:47.510Z,5.05
2023-02-20T07:20:16.162Z,5.53
2023-02-20T07:22:50.450Z,6.00
2023-02-20T07:25:17.616Z,4.88
2023-02-20T07:27:45.074Z,5.55
2023-02-20T07:30:13.005Z,5.13
2023-02-20T07:32:40.288Z,5.05
2023-02-20T07:35:09.731Z,5.75
2023-02-20T07:37:36.965Z,4.97
2023-02-20T07:40:04.585Z,5.22
2023-02-20T07:42:32.794Z,5.38
2023-02-20T07:45:00.216Z,5.32
2023-02-20T07:47:27.364Z,4.72
2023-02-20T07:49:54.615Z,4.70
2023-02-20T07:52:21.962Z,5.05
2023-02-20T07:54:49.440Z,5.22
2023-02-20T07:57:16.910Z,4.53
2023-02-20T07:59:44.217Z,5.15
2023-02-20T08:02:13.511Z,5.45
2023-02-20T08:04:41.687Z,5.40
2023-02-20T08:07:08.803Z,4.82
2023-02-20T08:09:36.077Z,4.50
2023-02-20T08:12:04.042Z,4.55
2023-02-20T08:14:31.516Z,5.22
2023-02-20T08:16:59.056Z,4.60
2023-02-20T08:19:26.449Z,4.68
2023-02-20T08:21:53.945Z,4.28
2023-02-20T08:24:21.118Z,4.45
2023-02-20T08:26:49.201Z,4.25
2023-02-20T08:29:19.521Z,3.92
2023-02-20T08:31:47.114Z,3.92
2023-02-20T08:34:14.333Z,3.72
2023-02-20T08:36:41.959Z,3.80
2023-02-20T08:39:09.196Z,3.95
2023-02-20T08:41:42.419Z,3.85
2023-02-20T08:44:09.846Z,3.50
2023-02-20T08:46:37.332Z,3.88
2023-02-20T08:49:04.820Z,4.05
2023-02-20T08:51:32.048Z,3.55
2023-02-20T08:53:59.473Z,3.78
2023-02-20T08:56:26.655Z,3.53
2023-02-20T08:58:54.228Z,3.97
2023-02-20T09:01:21.539Z,4.00
2023-02-20T09:03:49.300Z,3.60
2023-02-20T09:06:16.740Z,3.67
2023-02-20T09:08:45.335Z,4.10
2023-02-20T09:11:12.701Z,3.83
2023-02-20T09:13:46.928Z,3.92
2023-02-20T09:16:15.870Z,4.07
2023-02-20T09:18:44.395Z,4.03
2023-02-20T09:21:12.853Z,3.83
2023-02-20T09:23:40.186Z,3.40
2023-02-20T09:26:07.517Z,3.95
2023-02-20T09:28:34.794Z,3.85
2023-02-20T09:31:02.493Z,3.50
2023-02-20T09:33:29.818Z,3.78
2023-02-20T09:35:57.143Z,3.20
2023-02-20T09:38:26.533Z,3.70
2023-02-20T09:40:55.950Z,3.10
2023-02-20T09:43:46.860Z,3.20
2023-02-20T09:46:16.680Z,3.17
2023-02-20T09:48:50.987Z,2.88
2023-02-20T09:51:22.305Z,3.05
2023-02-20T09:54:03.241Z,3.03
2023-02-20T09:56:32.966Z,2.38
2023-02-20T09:59:00.401Z,2.90
2023-02-20T10:01:28.000Z,2.40
2023-02-20T10:03:59.941Z,2.33
2023-02-20T10:06:29.853Z,2.70
2023-02-20T10:08:57.284Z,2.90
2023-02-20T10:11:42.879Z,2.22
2023-02-20T10:14:29.114Z,2.40
2023-02-20T10:17:15.410Z,2.13
2023-02-20T10:19:51.576Z,1.92
2023-02-20T10:22:25.601Z,3.08
2023-02-20T10:24:59.106Z,2.40
2023-02-20T10:29:57.753Z,2.30
2023-02-20T10:32:33.718Z,1.70
2023-02-20T10:35:04.763Z,1.80
2023-02-20T10:37:47.154Z,2.00
2023-02-20T10:40:28.666Z,2.15
2023-02-20T10:43:01.916Z,1.85
2023-02-20T10:45:47.725Z,1.90
2023-02-20T10:48:15.785Z,1.55
2023-02-20T10:50:47.638Z,1.85
2023-02-20T10:53:24.940Z,1.65
2023-02-20T10:55:53.493Z,1.30
2023-02-20T10:58:20.951Z,1.73
2023-02-20T11:00:54.352Z,1.33
2023-02-20T11:03:35.629Z,1.60
2023-02-20T11:06:04.087Z,1.25
2023-02-20T11:08:31.348Z,2.30
2023-02-20T11:11:00.786Z,1.50
2023-02-20T11:13:30.052Z,1.52
2023-02-20T11:16:00.505Z,1.30
2023-02-20T11:18:32.774Z,1.20
2023-02-20T11:21:00.432Z,3.88
2023-02-20T11:23:44.410Z,1.33
2023-02-20T11:26:26.935Z,1.67
2023-02-20T11:29:15.825Z,1.40
2023-02-20T11:31:43.774Z,1.58
2023-02-20T11:34:19.411Z,1.58
2023-02-20T11:36:52.471Z,1.67
2023-02-20T11:39:32.252Z,1.40
2023-02-20T11:42:20.252Z,0.98
2023-02-20T11:45:04.468Z,1.35
2023-02-20T11:47:31.617Z,1.48
2023-02-20T11:50:20.241Z,1.13
2023-02-20T11:52:57.367Z,1.27
2023-02-20T11:55:27.615Z,1.20
2023-02-20T11:57:55.231Z,2.83
2023-02-20T12:00:24.385Z,1.00
2023-02-20T12:03:11.160Z,1.30
2023-02-20T12:05:39.096Z,1.40
2023-02-20T12:08:23.775Z,1.17
2023-02-20T12:10:54.255Z,1.30
2023-02-20T12:13:21.540Z,1.00
2023-02-20T12:15:52.092Z,1.45
2023-02-20T12:18:26.232Z,1.10
2023-02-20T12:21:05.528Z,0.90
2023-02-20T12:23:48.298Z,1.10
2023-02-20T12:26:27.708Z,0.80
2023-02-20T12:29:06.319Z,0.85
2023-02-20T12:31:52.721Z,1.58
2023-02-20T12:34:38.867Z,0.90
2023-02-20T12:37:20.924Z,0.80
2023-02-20T12:39:56.181Z,1.00
2023-02-20T12:42:23.355Z,0.70
2023-02-20T12:44:52.109Z,0.80
2023-02-20T12:47:25.088Z,0.98
2023-02-20T12:49:55.963Z,0.77
2023-02-20T12:52:46.175Z,0.88
2023-02-20T12:55:18.892Z,1.00
2023-02-20T12:57:52.658Z,1.10
2023-02-20T13:00:22.634Z,1.00
2023-02-20T13:02:52.354Z,1.23
2023-02-20T13:05:21.193Z,1.60
2023-02-20T13:07:52.446Z,1.25
2023-02-20T13:10:31.755Z,1.05
2023-02-20T13:12:59.815Z,1.17
2023-02-20T13:15:45.997Z,1.55
2023-02-20T13:18:20.804Z,1.10
2023-02-20T13:20:50.398Z,1.30
2023-02-20T13:23:17.588Z,1.65
2023-02-20T13:25:46.505Z,2.17
2023-02-20T13:28:14.280Z,1.60
2023-02-20T13:30:41.958Z,1.60
2023-02-20T13:33:29.762Z,1.40
2023-02-20T13:35:57.606Z,1.70
2023-02-20T13:38:26.225Z,1.50
2023-02-20T13:40:56.478Z,1.60
2023-02-20T13:43:23.642Z,1.98
2023-02-20T13:46:15.603Z,2.20
2023-02-20T13:48:45.168Z,1.98
2023-02-20T13:51:15.427Z,1.73
2023-02-20T13:53:44.005Z,2.33
2023-02-20T13:56:22.004Z,2.28
2023-02-20T13:58:50.349Z,2.10
2023-02-20T14:01:17.812Z,1.83
2023-02-20T14:03:45.058Z,2.15
2023-02-20T14:06:12.507Z,1.70
2023-02-20T14:08:47.366Z,1.67
2023-02-20T14:11:33.109Z,1.65
2023-02-20T14:14:02.720Z,1.70
2023-02-20T14:16:35.285Z,1.60
2023-02-20T14:19:14.617Z,1.88
2023-02-20T14:21:41.787Z,2.30
2023-02-20T14:24:19.071Z,4.78
2023-02-20T14:26:46.736Z,1.70
2023-02-20T14:29:21.478Z,1.70
2023-02-20T14:31:51.575Z,1.77
2023-02-20T14:34:25.148Z,1.73
2023-02-20T14:37:12.018Z,1.73
2023-02-20T14:39:52.320Z,1.85
2023-02-20T14:42:23.786Z,1.85
2023-02-20T14:45:06.049Z,1.40
2023-02-20T14:47:35.551Z,1.60
2023-02-20T14:50:16.043Z,1.40
2023-02-20T14:52:43.171Z,1.42
2023-02-20T14:55:16.743Z,1.40
2023-02-20T15:00:31.309Z,1.52
2023-02-20T15:02:58.665Z,1.48
2023-02-20T15:05:31.638Z,1.70
2023-02-20T15:08:05.423Z,1.27
2023-02-20T15:10:40.657Z,1.90
2023-02-20T15:13:12.585Z,1.70
2023-02-20T15:15:41.520Z,1.27
2023-02-20T15:18:10.812Z,1.58
2023-02-20T15:20:39.341Z,1.30
2023-02-20T15:23:28.764Z,1.42
2023-02-20T15:25:56.104Z,1.25
2023-02-20T15:28:23.433Z,1.38
2023-02-20T15:31:02.693Z,1.30
2023-02-20T15:33:30.918Z,1.42
2023-02-20T15:35:58.984Z,1.40
2023-02-20T15:38:34.455Z,1.65
2023-02-20T15:41:02.812Z,1.40
2023-02-20T15:43:47.241Z,1.45
2023-02-20T15:46:19.049Z,1.50
2023-02-20T15:48:46.482Z,1.73
2023-02-20T15:51:15.595Z,2.03
2023-02-20T15:53:45.912Z,1.67
2023-02-20T15:56:13.599Z,1.67
2023-02-20T15:58:44.965Z,1.50
2023-02-20T16:01:12.672Z,1.65
2023-02-20T16:03:51.617Z,1.80
2023-02-20T16:06:20.374Z,1.60
2023-02-20T16:08:47.770Z,1.70
2023-02-20T16:11:15.367Z,1.60
2023-02-20T16:13:45.232Z,1.58
2023-02-20T16:16:24.876Z,1.77
2023-02-20T16:18:54.874Z,1.38
2023-02-20T16:21:23.661Z,1.33
2023-02-20T16:23:51.320Z,1.55
2023-02-20T16:26:19.702Z,1.23
2023-02-20T16:28:53.745Z,1.60
2023-02-20T16:31:20.945Z,1.63
2023-02-20T16:33:49.457Z,1.60
2023-02-20T16:36:24.404Z,1.23
2023-02-20T16:38:52.262Z,1.83
2023-02-20T16:41:19.471Z,1.58
2023-02-20T16:43:46.684Z,1.80
2023-02-20T16:46:14.167Z,1.55
2023-02-20T16:48:43.801Z,1.85
2023-02-20T16:51:15.097Z,2.35
2023-02-20T16:53:42.278Z,3.65
2023-02-20T16:56:09.381Z,1.88
2023-02-20T16:58:36.596Z,1.42
2023-02-20T17:01:03.731Z,2.67
2023-02-20T17:03:32.329Z,2.22
2023-02-20T17:05:59.975Z,1.67
2023-02-20T17:08:28.170Z,2.97
2023-02-20T17:10:55.424Z,2.05
2023-02-20T17:13:22.584Z,2.47
2023-02-20T17:15:49.750Z,2.78
2023-02-20T17:18:16.963Z,2.67
2023-02-20T17:20:44.356Z,3.67
2023-02-20T17:23:11.488Z,3.15
2023-02-20T17:25:38.710Z,2.83
2023-02-20T17:28:06.645Z,4.20
2023-02-20T17:30:34.232Z,2.95
2023-02-20T17:33:01.418Z,5.15
2023-02-20T17:35:29.045Z,8.13
2023-02-20T17:37:56.191Z,6.47
2023-02-20T17:40:23.399Z,3.75
2023-02-20T17:42:50.964Z,2.90
2023-02-20T17:45:18.219Z,2.20
2023-02-20T17:47:45.795Z,2.40
2023-02-20T17:50:12.951Z,2.47
2023-02-20T17:52:40.212Z,2.47
2023-02-20T17:55:08.293Z,2.10
2023-02-20T17:57:35.422Z,2.40
2023-02-20T18:00:02.629Z,2.05
2023-02-20T18:02:29.732Z,2.13
2023-02-20T18:04:56.881Z,2.20
2023-02-20T18:07:23.998Z,2.47
2023-02-20T18:09:51.202Z,2.25
2023-02-20T18:12:18.700Z,2.35
2023-02-20T18:14:46.749Z,2.80
2023-02-20T18:17:13.961Z,2.40
2023-02-20T18:19:41.403Z,2.70
2023-02-20T18:22:08.589Z,3.03
2023-02-20T18:24:36.268Z,2.67
2023-02-20T18:27:03.930Z,2.60
2023-02-20T18:29:31.336Z,2.92
2023-02-20T18:31:58.935Z,3.42
2023-02-20T18:34:27.396Z,4.20
2023-02-20T18:36:55.164Z,4.25
2023-02-20T18:39:22.625Z,4.72
2023-02-20T18:41:50.659Z,3.67
2023-02-20T18:44:18.211Z,3.97
2023-02-20T18:46:45.345Z,3.13
2023-02-20T18:49:12.849Z,3.53
2023-02-20T18:51:40.697Z,3.22
2023-02-20T18:54:08.702Z,3.70
2023-02-20T18:56:36.537Z,3.35
2023-02-20T18:59:05.019Z,4.32
2023-02-20T19:01:33.982Z,5.38
2023-02-20T19:04:05.753Z,5.32
2023-02-20T19:06:34.583Z,3.75
2023-02-20T19:09:02.584Z,3.78
2023-02-20T19:11:30.231Z,4.35
2023-02-20T19:13:57.477Z,4.50
2023-02-20T19:16:24.759Z,4.53
2023-02-20T19:18:52.155Z,4.10
2023-02-20T19:21:19.669Z,4.22
2023-02-20T19:23:47.592Z,4.10
2023-02-20T19:26:15.307Z,3.90
2023-02-20T19:28:42.899Z,4.15
2023-02-20T19:31:10.620Z,4.22
2023-02-20T19:33:38.320Z,5.00
2023-02-20T19:36:08.264Z,6.82
2023-02-20T19:38:38.267Z,6.68
2023-02-20T19:41:05.513Z,5.75
2023-02-20T19:43:32.741Z,5.72
2023-02-20T19:46:00.062Z,5.50
2023-02-20T19:48:28.417Z,5.55
2023-02-20T19:50:56.859Z,4.90
2023-02-20T19:53:24.578Z,5.00
2023-02-20T19:55:54.534Z,6.38
2023-02-20T19:58:21.866Z,5.47
2023-02-20T20:00:49.027Z,4.60
2023-02-20T20:03:16.511Z,5.57
2023-02-20T20:05:43.763Z,4.65
2023-02-20T20:08:11.229Z,4.05
2023-02-20T20:10:38.422Z,4.88
2023-02-20T20:13:06.619Z,4.35
2023-02-20T20:15:34.669Z,4.00
2023-02-20T20:18:01.934Z,4.20
2023-02-20T20:20:30.296Z,4.63
2023-02-20T20:22:58.319Z,4.80
2023-02-20T20:25:25.720Z,4.35
2023-02-20T20:27:53.940Z,6.53
2023-02-20T20:30:23.010Z,5.88
2023-02-20T20:32:51.135Z,4.10
2023-02-20T20:35:19.387Z,4.78
2023-02-20T20:37:46.714Z,5.03
2023-02-20T20:40:14.571Z,5.00
2023-02-20T20:42:41.968Z,4.55
2023-02-20T20:45:10.067Z,5.10
2023-02-20T20:47:38.672Z,5.43
2023-02-20T20:50:06.024Z,4.82
2023-02-20T20:52:33.755Z,6.95
2023-02-20T20:55:04.856Z,5.95
2023-02-20T20:57:35.474Z,5.88
2023-02-20T21:00:05.311Z,5.72
2023-02-20T21:02:32.460Z,6.45
2023-02-20T21:05:09.745Z,6.70
2023-02-20T21:07:38.227Z,6.50
2023-02-20T21:10:06.272Z,7.05
2023-02-20T21:12:33.421Z,6.32
2023-02-20T21:15:00.894Z,5.93
2023-02-20T21:17:28.077Z,6.68
2023-02-20T21:19:55.252Z,6.32
2023-02-20T21:22:23.202Z,6.03
2023-02-20T21:24:50.507Z,7.03
2023-02-20T21:27:17.850Z,6.68
2023-02-20T21:29:45.070Z,8.35
2023-02-20T21:32:12.491Z,8.77
2023-02-20T21:34:39.971Z,7.90
2023-02-20T21:37:07.138Z,7.50
2023-02-20T21:39:34.333Z,6.82
2023-02-20T21:42:20.082Z,7.35
2023-02-20T21:44:47.922Z,6.93
2023-02-20T21:47:16.347Z,6.07
2023-02-20T21:49:45.042Z,6.50
2023-02-20T21:52:12.704Z,5.93
2023-02-20T21:54:40.463Z,5.63
2023-02-20T21:57:08.039Z,5.78
2023-02-20T21:59:35.492Z,5.10
2023-02-20T22:02:05.271Z,5.32
2023-02-20T22:04:32.397Z,5.53
2023-02-20T22:07:18.312Z,5.03
2023-02-20T22:10:04.360Z,4.90
2023-02-20T22:12:50.353Z,4.45
2023-02-20T22:15:36.028Z,4.53
2023-02-20T22:18:22.250Z,4.68
2023-02-20T22:21:07.984Z,4.82
2023-02-20T22:23:53.753Z,4.20
2023-02-20T22:26:40.583Z,3.75
2023-02-20T22:29:26.418Z,3.70
2023-02-20T22:32:12.617Z,3.65
2023-02-20T22:35:09.669Z,3.33
2023-02-20T22:37:57.249Z,3.50
2023-02-20T22:40:43.240Z,3.58
2023-02-20T22:43:28.893Z,3.22
2023-02-20T22:46:15.034Z,2.85
2023-02-20T22:49:01.093Z,2.90
2023-02-20T22:51:46.955Z,2.80
2023-02-20T22:54:32.700Z,2.80
2023-02-20T22:57:18.990Z,3.05
2023-02-20T23:00:05.274Z,2.80
2023-02-20T23:02:51.757Z,3.13
2023-02-20T23:05:37.688Z,2.95
2023-02-20T23:08:23.333Z,3.40
2023-02-20T23:11:09.213Z,3.03
2023-02-20T23:13:54.968Z,3.08
2023-02-20T23:16:41.609Z,2.60
2023-02-20T23:19:28.974Z,2.80
2023-02-20T23:22:15.143Z,2.58
2023-02-20T23:25:01.265Z,2.78
2023-02-20T23:27:47.767Z,2.45
2023-02-20T23:30:34.461Z,2.50
2023-02-20T23:33:20.881Z,1.83
2023-02-20T23:36:06.888Z,1.90
2023-02-20T23:38:52.663Z,1.52
2023-02-20T23:41:38.896Z,1.60
2023-02-20T23:44:25.813Z,1.40
2023-02-20T23:47:12.058Z,1.33
2023-02-20T23:49:58.224Z,1.27
2023-02-20T23:52:44.102Z,1.40
2023-02-20T23:55:30.167Z,1.10
2023-02-20T23:58:16.186Z,0.98
